createdAt,value
2019-03-22T00:00:30.878Z,11.90
2019-03-22T00:01:30.913Z,11.90
2019-03-22T00:02:30.958Z,10.20
2019-03-22T00:03:31.006Z,10.80
2019-03-22T00:04:31.033Z,11.80
2019-03-22T00:05:31.063Z,14.40
2019-03-22T00:06:31.101Z,12.10
2019-03-22T00:07:31.137Z,13.60
2019-03-22T00:08:31.175Z,13.20
2019-03-22T00:09:31.211Z,12.70
2019-03-22T00:10:31.253Z,14.90
2019-03-22T00:11:31.287Z,12.50
2019-03-22T00:12:31.324Z,13.50
2019-03-22T00:13:31.361Z,13.40
2019-03-22T00:14:31.396Z,14.50
2019-03-22T00:15:31.437Z,17.10
2019-03-22T00:16:31.470Z,14.50
2019-03-22T00:17:31.507Z,15.30
2019-03-22T00:18:31.544Z,14.40
2019-03-22T00:19:31.581Z,15.70
2019-03-22T00:20:31.616Z,15.60
2019-03-22T00:21:31.656Z,15.20
2019-03-22T00:22:31.691Z,13.20
2019-03-22T00:23:31.730Z,15.50
2019-03-22T00:24:31.766Z,13.70
2019-03-22T00:25:31.803Z,13.30
2019-03-22T00:26:32.637Z,11.90
2019-03-22T00:27:31.876Z,13.30
2019-03-22T00:28:31.912Z,14.00
2019-03-22T00:29:31.959Z,13.40
2019-03-22T00:30:31.988Z,15.10
2019-03-22T00:31:32.025Z,12.10
2019-03-22T00:32:32.061Z,12.70
2019-03-22T00:33:32.098Z,14.20
2019-03-22T00:34:32.134Z,14.70
2019-03-22T00:35:32.173Z,14.30
2019-03-22T00:36:32.213Z,12.60
2019-03-22T00:37:32.246Z,13.80
2019-03-22T00:38:32.284Z,12.80
2019-03-22T00:39:32.325Z,12.90
2019-03-22T00:40:32.357Z,15.60
2019-03-22T00:41:32.393Z,16.60
2019-03-22T00:42:32.434Z,13.50
2019-03-22T00:43:32.470Z,14.70
2019-03-22T00:44:32.505Z,14.30
2019-03-22T00:45:32.549Z,13.80
2019-03-22T00:46:32.578Z,11.70
2019-03-22T00:47:32.617Z,13.30
2019-03-22T00:48:32.652Z,12.20
2019-03-22T00:49:32.688Z,13.70
2019-03-22T00:50:32.727Z,11.10
2019-03-22T00:51:32.764Z,14.10
2019-03-22T00:52:32.799Z,12.50
2019-03-22T00:53:32.848Z,13.30
2019-03-22T00:54:32.872Z,12.40
2019-03-22T00:55:32.926Z,13.00
2019-03-22T00:56:32.945Z,11.50
2019-03-22T00:57:32.982Z,12.70
2019-03-22T00:58:33.019Z,11.30
2019-03-22T00:59:33.056Z,11.10
2019-03-22T01:00:33.095Z,11.20
2019-03-22T01:01:33.132Z,12.00
2019-03-22T01:02:33.167Z,12.90
2019-03-22T01:03:33.205Z,10.80
2019-03-22T01:04:33.243Z,10.10
2019-03-22T01:05:33.280Z,10.40
2019-03-22T01:06:33.316Z,10.20
2019-03-22T01:07:33.352Z,11.60
2019-03-22T01:08:33.389Z,12.50
2019-03-22T01:09:33.426Z,12.10
2019-03-22T01:10:33.462Z,10.40
2019-03-22T01:11:33.502Z,9.40
2019-03-22T01:12:33.536Z,10.40
2019-03-22T01:13:33.574Z,10.70
2019-03-22T01:14:33.614Z,10.20
2019-03-22T01:15:33.654Z,9.50
2019-03-22T01:16:33.683Z,9.70
2019-03-22T01:17:33.729Z,9.10
2019-03-22T01:18:33.770Z,12.10
2019-03-22T01:19:33.800Z,10.10
2019-03-22T01:20:33.835Z,11.90
2019-03-22T01:21:33.866Z,10.50
2019-03-22T01:22:33.908Z,10.00
2019-03-22T01:23:33.941Z,11.10
2019-03-22T01:24:33.975Z,11.00
2019-03-22T01:25:34.013Z,10.80
2019-03-22T01:26:34.051Z,11.50
2019-03-22T01:27:40.509Z,11.90
2019-03-22T01:28:34.123Z,9.30
2019-03-22T01:29:34.161Z,9.20
2019-03-22T01:30:34.197Z,10.10
2019-03-22T01:31:34.242Z,12.00
2019-03-22T01:32:34.272Z,12.60
2019-03-22T01:33:34.306Z,8.80
2019-03-22T01:34:34.344Z,9.70
2019-03-22T01:35:34.380Z,12.20
2019-03-22T01:36:34.417Z,9.60
2019-03-22T01:37:34.463Z,9.00
2019-03-22T01:38:34.499Z,12.20
2019-03-22T01:39:34.529Z,10.90
2019-03-22T01:40:34.564Z,8.90
2019-03-22T01:41:34.601Z,10.40
2019-03-22T01:42:34.641Z,9.50
2019-03-22T01:43:34.677Z,10.40
2019-03-22T01:44:34.712Z,9.80
2019-03-22T01:45:34.758Z,9.50
2019-03-22T01:46:34.785Z,10.70
2019-03-22T01:47:34.832Z,11.60
2019-03-22T01:48:34.859Z,12.20
2019-03-22T01:49:34.894Z,12.60
2019-03-22T01:50:34.983Z,13.00
2019-03-22T01:51:34.970Z,9.90
2019-03-22T01:52:35.007Z,10.80
2019-03-22T01:53:35.042Z,9.70
2019-03-22T01:54:35.080Z,12.80
2019-03-22T01:55:35.114Z,10.60
2019-03-22T01:56:35.156Z,12.60
2019-03-22T01:57:35.189Z,13.60
2019-03-22T01:58:35.229Z,11.70
2019-03-22T01:59:35.261Z,10.70
2019-03-22T02:00:35.303Z,12.20
2019-03-22T02:01:35.335Z,10.30
2019-03-22T02:02:35.371Z,11.90
2019-03-22T02:03:35.408Z,18.70
2019-03-22T02:04:35.445Z,12.30
2019-03-22T02:05:35.482Z,14.70
2019-03-22T02:06:35.522Z,13.10
2019-03-22T02:07:35.556Z,15.10
2019-03-22T02:08:35.597Z,14.40
2019-03-22T02:09:35.628Z,12.80
2019-03-22T02:10:35.666Z,13.40
2019-03-22T02:11:35.702Z,15.40
2019-03-22T02:12:35.757Z,13.60
2019-03-22T02:13:35.791Z,13.80
2019-03-22T02:14:35.811Z,15.10
2019-03-22T02:15:35.848Z,14.80
2019-03-22T02:16:35.894Z,14.40
2019-03-22T02:17:35.921Z,14.50
2019-03-22T02:18:35.959Z,16.30
2019-03-22T02:19:35.994Z,16.90
2019-03-22T02:20:36.032Z,17.10
2019-03-22T02:21:36.068Z,16.50
2019-03-22T02:22:36.103Z,15.40
2019-03-22T02:23:36.142Z,14.60
2019-03-22T02:24:36.186Z,14.00
2019-03-22T02:25:36.214Z,11.80
2019-03-22T02:26:36.250Z,14.60
2019-03-22T02:27:36.288Z,13.20
2019-03-22T02:28:36.324Z,16.20
2019-03-22T02:29:36.361Z,14.30
2019-03-22T02:30:36.398Z,12.80
2019-03-22T02:31:36.444Z,11.50
2019-03-22T02:32:36.479Z,13.30
2019-03-22T02:33:36.556Z,12.60
2019-03-22T02:34:36.543Z,11.40
2019-03-22T02:35:36.578Z,11.20
2019-03-22T02:36:36.617Z,12.50
2019-03-22T02:37:36.652Z,13.00
2019-03-22T02:38:36.688Z,11.20
2019-03-22T02:39:36.842Z,11.40
2019-03-22T02:40:36.762Z,13.00
2019-03-22T02:41:36.798Z,29.30
2019-03-22T02:42:36.835Z,26.90
2019-03-22T02:43:36.874Z,14.70
2019-03-22T02:44:36.906Z,14.00
2019-03-22T02:45:36.961Z,13.70
2019-03-22T02:46:36.980Z,14.20
2019-03-22T02:47:37.068Z,15.00
2019-03-22T02:48:37.053Z,20.80
2019-03-22T02:49:37.093Z,17.30
2019-03-22T02:50:37.136Z,14.70
2019-03-22T02:51:37.178Z,13.10
2019-03-22T02:52:37.199Z,14.00
2019-03-22T02:53:37.242Z,14.50
2019-03-22T02:54:37.271Z,16.10
2019-03-22T02:55:37.320Z,15.90
2019-03-22T02:56:37.347Z,21.90
2019-03-22T02:57:37.380Z,14.10
2019-03-22T02:58:37.418Z,15.20
2019-03-22T02:59:37.458Z,13.30
2019-03-22T03:00:37.488Z,16.90
2019-03-22T03:01:37.525Z,15.50
2019-03-22T03:02:37.565Z,17.30
2019-03-22T03:03:37.598Z,17.10
2019-03-22T03:04:37.644Z,15.90
2019-03-22T03:05:37.674Z,14.20
2019-03-22T03:06:37.865Z,14.00
2019-03-22T03:07:37.745Z,13.90
2019-03-22T03:08:37.784Z,13.70
2019-03-22T03:09:37.918Z,11.00
2019-03-22T03:10:37.854Z,14.70
2019-03-22T03:11:37.890Z,14.70
2019-03-22T03:12:37.927Z,13.30
2019-03-22T03:13:37.964Z,12.80
2019-03-22T03:14:38.000Z,12.50
2019-03-22T03:15:38.035Z,14.20
2019-03-22T03:16:38.071Z,11.90
2019-03-22T03:17:38.109Z,10.80
2019-03-22T03:18:38.143Z,12.00
2019-03-22T03:19:38.180Z,12.80
2019-03-22T03:20:38.270Z,11.00
2019-03-22T03:21:38.261Z,11.00
2019-03-22T03:22:38.300Z,12.20
2019-03-22T03:23:38.329Z,13.90
2019-03-22T03:24:38.371Z,12.20
2019-03-22T03:25:38.404Z,11.10
2019-03-22T03:26:38.436Z,11.30
2019-03-22T03:27:38.474Z,10.70
2019-03-22T03:28:38.509Z,11.60
2019-03-22T03:29:38.545Z,13.50
2019-03-22T03:30:38.590Z,15.40
2019-03-22T03:31:38.618Z,16.50
2019-03-22T03:32:38.654Z,12.20
2019-03-22T03:33:38.704Z,12.80
2019-03-22T03:34:38.727Z,13.80
2019-03-22T03:35:38.765Z,14.00
2019-03-22T03:36:38.810Z,20.80
2019-03-22T03:37:38.836Z,35.00
2019-03-22T03:38:38.875Z,22.20
2019-03-22T03:39:38.908Z,16.30
2019-03-22T03:40:38.944Z,13.70
2019-03-22T03:41:38.994Z,12.40
2019-03-22T03:42:39.021Z,13.20
2019-03-22T03:43:39.059Z,12.30
2019-03-22T03:44:39.098Z,12.30
2019-03-22T03:45:39.124Z,14.30
2019-03-22T03:46:39.162Z,14.20
2019-03-22T03:47:39.209Z,11.40
2019-03-22T03:48:39.238Z,17.30
2019-03-22T03:49:39.271Z,36.70
2019-03-22T03:50:39.311Z,21.50
2019-03-22T03:51:39.344Z,15.50
2019-03-22T03:52:39.761Z,11.80
2019-03-22T03:53:39.416Z,17.40
2019-03-22T03:54:39.452Z,15.50
2019-03-22T03:55:39.500Z,14.20
2019-03-22T03:56:39.551Z,16.70
2019-03-22T03:57:39.563Z,16.00
2019-03-22T03:58:51.690Z,18.40
2019-03-22T03:59:39.633Z,18.70
2019-03-22T04:00:39.684Z,20.50
2019-03-22T04:01:39.709Z,18.10
2019-03-22T04:02:39.760Z,19.50
2019-03-22T04:03:39.784Z,22.20
2019-03-22T04:04:39.814Z,17.50
2019-03-22T04:05:39.852Z,14.40
2019-03-22T04:06:39.903Z,15.20
2019-03-22T04:07:39.925Z,16.80
2019-03-22T04:08:39.959Z,17.90
2019-03-22T04:09:40.002Z,25.30
2019-03-22T04:10:40.040Z,22.50
2019-03-22T04:11:40.068Z,18.80
2019-03-22T04:12:40.104Z,20.30
2019-03-22T04:13:40.140Z,17.20
2019-03-22T04:14:40.178Z,92.20
2019-03-22T04:15:40.214Z,126.50
2019-03-22T04:16:40.250Z,195.30
2019-03-22T04:17:40.286Z,195.00
2019-03-22T04:18:40.322Z,15.80
2019-03-22T04:19:40.359Z,12.90
2019-03-22T04:20:40.394Z,12.40
2019-03-22T04:21:40.432Z,14.00
2019-03-22T04:22:40.469Z,15.60
2019-03-22T04:23:40.504Z,13.90
2019-03-22T04:24:40.550Z,59.20
2019-03-22T04:25:40.585Z,27.10
2019-03-22T04:26:40.612Z,11.50
2019-03-22T04:27:40.649Z,12.00
2019-03-22T04:28:40.688Z,12.80
2019-03-22T04:29:40.732Z,10.70
2019-03-22T04:30:40.758Z,11.20
2019-03-22T04:31:40.796Z,11.50
2019-03-22T04:32:40.831Z,11.70
2019-03-22T04:33:40.869Z,11.50
2019-03-22T04:34:40.955Z,12.40
2019-03-22T04:35:40.951Z,13.70
2019-03-22T04:36:40.979Z,14.40
2019-03-22T04:37:41.010Z,15.50
2019-03-22T04:38:41.050Z,14.80
2019-03-22T04:39:41.094Z,16.30
2019-03-22T04:40:41.118Z,17.00
2019-03-22T04:41:41.155Z,16.10
2019-03-22T04:42:41.193Z,13.80
2019-03-22T04:43:41.231Z,16.00
2019-03-22T04:44:41.263Z,14.20
2019-03-22T04:45:41.302Z,19.40
2019-03-22T04:46:41.337Z,15.10
2019-03-22T04:47:41.372Z,15.10
2019-03-22T04:48:41.411Z,14.70
2019-03-22T04:49:41.457Z,14.70
2019-03-22T04:50:41.483Z,16.10
2019-03-22T04:51:41.518Z,15.70
2019-03-22T04:52:41.556Z,17.20
2019-03-22T04:53:41.599Z,17.40
2019-03-22T04:54:41.627Z,17.50
2019-03-22T04:55:41.663Z,15.10
2019-03-22T04:56:41.699Z,17.30
2019-03-22T04:57:41.735Z,17.70
2019-03-22T04:58:41.773Z,17.40
2019-03-22T04:59:41.808Z,14.90
2019-03-22T05:00:41.943Z,15.10
2019-03-22T05:01:41.879Z,14.80
2019-03-22T05:02:41.969Z,15.20
2019-03-22T05:03:41.952Z,15.40
2019-03-22T05:04:41.988Z,16.00
2019-03-22T05:05:42.025Z,14.60
2019-03-22T05:06:42.069Z,13.50
2019-03-22T05:07:42.096Z,13.90
2019-03-22T05:08:42.132Z,16.70
2019-03-22T05:09:42.168Z,14.90
2019-03-22T05:10:42.205Z,13.60
2019-03-22T05:11:42.241Z,13.30
2019-03-22T05:12:42.275Z,14.40
2019-03-22T05:13:42.313Z,15.80
2019-03-22T05:14:42.357Z,16.70
2019-03-22T05:15:42.384Z,14.80
2019-03-22T05:16:42.419Z,14.90
2019-03-22T05:17:42.457Z,12.90
2019-03-22T05:18:44.037Z,15.80
2019-03-22T05:19:42.530Z,14.30
2019-03-22T05:20:42.565Z,20.40
2019-03-22T05:21:42.601Z,18.50
2019-03-22T05:22:42.638Z,16.40
2019-03-22T05:23:42.675Z,17.80
2019-03-22T05:24:42.710Z,18.30
2019-03-22T05:25:42.748Z,20.10
2019-03-22T05:26:42.883Z,20.20
2019-03-22T05:27:42.823Z,21.90
2019-03-22T05:28:42.854Z,20.90
2019-03-22T05:29:42.893Z,17.10
2019-03-22T05:30:42.929Z,19.00
2019-03-22T05:31:42.966Z,18.70
2019-03-22T05:32:42.999Z,16.40
2019-03-22T05:33:43.036Z,16.00
2019-03-22T05:34:43.072Z,17.00
2019-03-22T05:35:43.107Z,16.40
2019-03-22T05:36:43.146Z,12.90
2019-03-22T05:37:43.181Z,14.90
2019-03-22T05:38:43.217Z,13.40
2019-03-22T05:39:43.253Z,12.20
2019-03-22T05:40:43.288Z,12.10
2019-03-22T05:41:43.339Z,11.00
2019-03-22T05:42:43.364Z,12.50
2019-03-22T05:43:43.397Z,11.40
2019-03-22T05:44:43.437Z,11.40
2019-03-22T05:45:43.470Z,12.10
2019-03-22T05:46:43.513Z,10.50
2019-03-22T05:47:43.542Z,11.70
2019-03-22T05:48:43.578Z,11.60
2019-03-22T05:49:43.613Z,11.30
2019-03-22T05:50:43.700Z,11.00
2019-03-22T05:51:43.685Z,12.20
2019-03-22T05:52:43.723Z,10.90
2019-03-22T05:53:43.760Z,13.30
2019-03-22T05:54:43.794Z,12.90
2019-03-22T05:55:43.835Z,12.70
2019-03-22T05:56:43.867Z,12.30
2019-03-22T05:57:43.907Z,14.40
2019-03-22T05:58:43.940Z,14.60
2019-03-22T05:59:43.982Z,13.00
2019-03-22T06:00:44.010Z,15.50
2019-03-22T06:01:45.356Z,12.00
2019-03-22T06:02:44.083Z,13.30
2019-03-22T06:03:44.121Z,11.90
2019-03-22T06:04:44.161Z,10.30
2019-03-22T06:05:44.194Z,12.90
2019-03-22T06:06:44.228Z,12.40
2019-03-22T06:07:44.272Z,12.60
2019-03-22T06:08:44.302Z,14.40
2019-03-22T06:09:44.345Z,13.20
2019-03-22T06:10:44.382Z,14.20
2019-03-22T06:11:44.419Z,12.70
2019-03-22T06:12:44.468Z,11.30
2019-03-22T06:13:44.665Z,13.00
2019-03-22T06:14:44.524Z,12.40
2019-03-22T06:15:44.561Z,13.10
2019-03-22T06:16:44.595Z,13.90
2019-03-22T06:17:51.508Z,13.30
2019-03-22T06:18:44.666Z,15.30
2019-03-22T06:19:44.704Z,12.40
2019-03-22T06:20:44.741Z,13.50
2019-03-22T06:21:44.775Z,15.50
2019-03-22T06:22:44.812Z,12.70
2019-03-22T06:23:44.954Z,14.20
2019-03-22T06:24:44.885Z,12.00
2019-03-22T06:25:44.923Z,13.50
2019-03-22T06:26:44.958Z,12.60
2019-03-22T06:27:44.995Z,13.30
2019-03-22T06:28:45.033Z,12.00
2019-03-22T06:29:53.762Z,12.80
2019-03-22T06:30:45.106Z,13.50
2019-03-22T06:31:45.148Z,13.70
2019-03-22T06:32:45.177Z,15.60
2019-03-22T06:33:45.220Z,16.40
2019-03-22T06:34:45.253Z,12.20
2019-03-22T06:35:45.294Z,12.90
2019-03-22T06:36:45.326Z,15.80
2019-03-22T06:37:45.361Z,17.10
2019-03-22T06:38:45.399Z,15.70
2019-03-22T06:39:45.447Z,14.70
2019-03-22T06:40:45.473Z,17.40
2019-03-22T06:41:45.509Z,20.70
2019-03-22T06:42:45.551Z,23.30
2019-03-22T06:43:45.583Z,17.20
2019-03-22T06:44:45.620Z,16.10
2019-03-22T06:45:45.660Z,18.10
2019-03-22T06:46:45.695Z,19.00
2019-03-22T06:47:45.732Z,20.70
2019-03-22T06:48:45.773Z,17.40
2019-03-22T06:49:45.807Z,25.10
2019-03-22T06:50:45.844Z,80.20
2019-03-22T06:51:45.878Z,53.00
2019-03-22T06:52:45.915Z,23.10
2019-03-22T06:53:45.954Z,26.40
2019-03-22T06:54:46.038Z,20.90
2019-03-22T06:55:46.026Z,19.20
2019-03-22T06:56:46.061Z,20.40
2019-03-22T06:57:46.106Z,20.50
2019-03-22T06:58:46.137Z,20.90
2019-03-22T06:59:46.173Z,20.60
2019-03-22T07:00:46.210Z,16.70
2019-03-22T07:01:46.246Z,19.40
2019-03-22T07:02:46.283Z,16.00
2019-03-22T07:03:46.322Z,14.20
2019-03-22T07:04:46.357Z,16.80
2019-03-22T07:05:46.398Z,13.80
2019-03-22T07:06:46.441Z,14.00
2019-03-22T07:07:46.471Z,13.30
2019-03-22T07:08:46.510Z,13.20
2019-03-22T07:09:46.547Z,14.40
2019-03-22T07:10:46.580Z,14.70
2019-03-22T07:11:46.618Z,11.60
2019-03-22T07:12:46.663Z,14.30
2019-03-22T07:13:46.694Z,13.00
2019-03-22T07:14:46.730Z,11.70
2019-03-22T07:15:46.768Z,14.40
2019-03-22T07:16:46.804Z,14.40
2019-03-22T07:17:46.849Z,13.90
2019-03-22T07:18:46.894Z,13.30
2019-03-22T07:19:46.919Z,12.40
2019-03-22T07:20:47.105Z,10.60
2019-03-22T07:21:46.995Z,12.20
2019-03-22T07:22:47.030Z,13.00
2019-03-22T07:23:47.066Z,13.20
2019-03-22T07:24:47.104Z,12.20
2019-03-22T07:25:47.149Z,11.30
2019-03-22T07:26:47.178Z,11.70
2019-03-22T07:27:47.217Z,10.70
2019-03-22T07:28:47.255Z,9.30
2019-03-22T07:29:47.296Z,10.10
2019-03-22T07:30:47.379Z,13.80
2019-03-22T07:31:47.366Z,12.80
2019-03-22T07:32:47.414Z,12.20
2019-03-22T07:33:47.443Z,12.80
2019-03-22T07:34:47.482Z,54.70
2019-03-22T07:35:47.517Z,12.60
2019-03-22T07:36:47.557Z,10.70
2019-03-22T07:37:47.602Z,14.80
2019-03-22T07:38:47.641Z,12.90
2019-03-22T07:39:47.668Z,10.30
2019-03-22T07:40:47.707Z,13.80
2019-03-22T07:41:47.745Z,11.90
2019-03-22T07:42:47.783Z,11.50
2019-03-22T07:43:47.821Z,12.70
2019-03-22T07:44:47.861Z,13.30
2019-03-22T07:45:47.900Z,10.80
2019-03-22T07:46:47.938Z,13.90
2019-03-22T07:47:47.974Z,11.00
2019-03-22T07:48:48.021Z,11.80
2019-03-22T07:49:48.051Z,11.20
2019-03-22T07:50:48.089Z,11.40
2019-03-22T07:51:48.137Z,10.00
2019-03-22T07:52:48.165Z,10.50
2019-03-22T07:53:48.202Z,11.10
2019-03-22T07:54:48.251Z,11.40
2019-03-22T07:55:48.307Z,11.60
2019-03-22T07:56:48.335Z,13.00
2019-03-22T07:57:48.358Z,10.30
2019-03-22T07:58:48.395Z,10.90
2019-03-22T07:59:48.433Z,11.10
2019-03-22T08:00:48.509Z,9.70
2019-03-22T08:01:48.520Z,12.20
2019-03-22T08:02:48.550Z,10.70
2019-03-22T08:03:48.589Z,14.60
2019-03-22T08:04:48.627Z,10.80
2019-03-22T08:05:51.475Z,10.30
2019-03-22T08:06:48.709Z,12.80
2019-03-22T08:07:48.745Z,11.40
2019-03-22T08:08:48.782Z,11.10
2019-03-22T08:09:51.145Z,12.90
2019-03-22T08:10:48.912Z,13.50
2019-03-22T08:11:48.940Z,12.20
2019-03-22T08:12:48.944Z,13.70
2019-03-22T08:13:48.979Z,12.60
2019-03-22T08:14:49.042Z,11.80
2019-03-22T08:15:49.060Z,12.20
2019-03-22T08:16:49.105Z,11.70
2019-03-22T08:17:49.246Z,11.70
2019-03-22T08:18:49.172Z,12.20
2019-03-22T08:19:49.212Z,13.90
2019-03-22T08:20:49.251Z,12.00
2019-03-22T08:21:49.312Z,13.10
2019-03-22T08:22:49.343Z,11.00
2019-03-22T08:23:49.367Z,13.50
2019-03-22T08:24:49.408Z,13.80
2019-03-22T08:25:49.485Z,12.90
2019-03-22T08:26:49.495Z,12.00
2019-03-22T08:27:49.530Z,17.60
2019-03-22T08:28:49.566Z,14.10
2019-03-22T08:29:49.604Z,13.80
2019-03-22T08:30:49.642Z,13.10
2019-03-22T08:31:49.681Z,16.50
2019-03-22T08:32:50.599Z,14.50
2019-03-22T08:33:49.802Z,12.50
2019-03-22T08:34:49.852Z,15.50
2019-03-22T08:35:49.843Z,14.50
2019-03-22T08:36:49.879Z,16.50
2019-03-22T08:37:52.857Z,15.20
2019-03-22T08:38:49.958Z,16.00
2019-03-22T08:39:49.994Z,14.20
2019-03-22T08:40:50.055Z,17.60
2019-03-22T08:41:50.087Z,13.90
2019-03-22T08:42:50.113Z,14.80
2019-03-22T08:43:50.152Z,13.40
2019-03-22T08:44:50.189Z,18.10
2019-03-22T08:45:50.254Z,15.00
2019-03-22T08:46:50.323Z,15.20
2019-03-22T08:47:50.352Z,15.50
2019-03-22T08:48:50.381Z,14.80
2019-03-22T08:49:50.678Z,19.70
2019-03-22T08:50:50.436Z,19.10
2019-03-22T08:51:50.503Z,16.70
2019-03-22T08:52:50.561Z,16.60
2019-03-22T08:53:55.447Z,18.80
2019-03-22T08:54:50.586Z,15.00
2019-03-22T08:55:50.669Z,16.80
2019-03-22T08:56:50.689Z,14.00
2019-03-22T08:57:50.702Z,14.90
2019-03-22T08:58:50.745Z,14.70
2019-03-22T08:59:50.788Z,15.10
2019-03-22T09:00:57.371Z,17.30
2019-03-22T09:01:50.861Z,14.70
2019-03-22T09:02:50.904Z,14.30
2019-03-22T09:03:50.945Z,16.20
2019-03-22T09:04:50.982Z,18.90
2019-03-22T09:05:51.021Z,15.40
2019-03-22T09:06:51.064Z,16.20
2019-03-22T09:07:51.099Z,16.90
2019-03-22T09:08:51.138Z,17.70
2019-03-22T09:09:51.225Z,15.30
2019-03-22T09:10:51.226Z,18.30
2019-03-22T09:11:51.295Z,14.90
2019-03-22T09:12:51.376Z,16.10
2019-03-22T09:13:53.650Z,14.60
2019-03-22T09:14:51.408Z,16.50
2019-03-22T09:15:51.444Z,16.50
2019-03-22T09:16:51.460Z,15.70
2019-03-22T09:17:51.499Z,16.20
2019-03-22T09:18:51.557Z,18.20
2019-03-22T09:19:51.594Z,19.20
2019-03-22T09:20:51.666Z,16.50
2019-03-22T09:21:51.661Z,16.70
2019-03-22T09:22:51.746Z,17.40
2019-03-22T09:23:51.740Z,15.80
2019-03-22T09:24:51.790Z,18.40
2019-03-22T09:25:51.824Z,18.00
2019-03-22T09:26:51.970Z,18.10
2019-03-22T09:27:51.917Z,17.70
2019-03-22T09:28:51.966Z,19.00
2019-03-22T09:29:51.980Z,18.50
2019-03-22T09:30:52.039Z,18.30
2019-03-22T09:31:53.658Z,18.40
2019-03-22T09:32:52.102Z,17.80
2019-03-22T09:33:52.144Z,15.90
2019-03-22T09:34:52.183Z,18.60
2019-03-22T09:35:52.277Z,18.80
2019-03-22T09:36:52.263Z,18.90
2019-03-22T09:37:52.319Z,16.80
2019-03-22T09:38:52.383Z,20.40
2019-03-22T09:39:52.405Z,17.50
2019-03-22T09:40:52.424Z,18.40
2019-03-22T09:41:52.465Z,18.90
2019-03-22T09:42:53.107Z,18.80
2019-03-22T09:43:52.550Z,19.10
2019-03-22T09:44:52.606Z,20.60
2019-03-22T09:45:52.639Z,19.20
2019-03-22T09:46:52.676Z,20.50
2019-03-22T09:47:52.720Z,17.70
2019-03-22T09:48:52.772Z,20.30
2019-03-22T09:49:52.818Z,21.30
2019-03-22T09:50:52.833Z,19.50
2019-03-22T09:51:55.251Z,19.70
2019-03-22T09:52:52.926Z,18.20
2019-03-22T09:53:52.955Z,20.90
2019-03-22T09:54:53.013Z,19.70
2019-03-22T09:55:53.037Z,18.20
2019-03-22T09:56:53.083Z,18.00
2019-03-22T09:57:53.142Z,23.60
2019-03-22T09:58:53.210Z,20.20
2019-03-22T09:59:53.223Z,18.90
2019-03-22T10:00:53.290Z,17.70
2019-03-22T10:01:53.338Z,18.40
2019-03-22T10:02:53.325Z,20.40
2019-03-22T10:03:53.368Z,20.10
2019-03-22T10:04:53.408Z,21.00
2019-03-22T10:05:53.476Z,18.80
2019-03-22T10:06:53.497Z,17.60
2019-03-22T10:07:53.532Z,17.90
2019-03-22T10:08:53.577Z,19.50
2019-03-22T10:09:53.634Z,18.00
2019-03-22T10:10:53.688Z,19.10
2019-03-22T10:11:53.751Z,17.60
2019-03-22T10:12:53.757Z,19.90
2019-03-22T10:13:53.814Z,20.10
2019-03-22T10:14:53.817Z,20.50
2019-03-22T10:15:53.895Z,20.90
2019-03-22T10:16:53.942Z,18.40
2019-03-22T10:17:54.006Z,17.60
2019-03-22T10:18:54.041Z,18.80
2019-03-22T10:19:54.027Z,16.40
2019-03-22T10:20:54.065Z,18.10
2019-03-22T10:21:54.108Z,21.80
2019-03-22T10:22:54.159Z,19.40
2019-03-22T10:23:54.227Z,17.20
2019-03-22T10:24:54.257Z,18.00
2019-03-22T10:25:54.274Z,19.90
2019-03-22T10:26:54.432Z,16.80
2019-03-22T10:27:54.426Z,16.60
2019-03-22T10:28:54.398Z,15.70
2019-03-22T10:29:54.443Z,16.80
2019-03-22T10:30:54.499Z,16.30
2019-03-22T10:31:54.565Z,17.40
2019-03-22T10:32:54.620Z,17.60
2019-03-22T10:33:54.634Z,16.70
2019-03-22T10:34:54.661Z,14.20
2019-03-22T10:35:54.722Z,16.50
2019-03-22T10:36:54.743Z,17.00
2019-03-22T10:38:00.438Z,16.50
2019-03-22T10:38:54.818Z,17.10
2019-03-22T10:39:54.925Z,16.70
2019-03-22T10:40:54.963Z,15.80
2019-03-22T10:41:55.000Z,15.60
2019-03-22T10:42:54.986Z,18.10
2019-03-22T10:43:55.043Z,17.70
2019-03-22T10:44:55.069Z,18.20
2019-03-22T10:45:55.112Z,16.30
2019-03-22T10:46:55.157Z,16.40
2019-03-22T10:47:55.209Z,16.70
2019-03-22T10:48:55.292Z,17.00
2019-03-22T10:49:55.319Z,15.10
2019-03-22T10:50:55.327Z,17.00
2019-03-22T10:51:57.293Z,19.00
2019-03-22T10:52:55.450Z,15.20
2019-03-22T10:53:55.464Z,15.60
2019-03-22T10:54:55.520Z,15.10
2019-03-22T10:55:55.546Z,14.00
2019-03-22T10:56:55.579Z,11.50
2019-03-22T10:57:55.716Z,12.70
2019-03-22T10:58:55.664Z,10.10
2019-03-22T10:59:55.718Z,12.40
2019-03-22T11:00:55.749Z,9.20
2019-03-22T11:02:03.167Z,11.40
2019-03-22T11:02:55.836Z,8.70
2019-03-22T11:03:56.041Z,8.20
2019-03-22T11:04:55.922Z,9.20
2019-03-22T11:05:55.963Z,9.10
2019-03-22T11:06:56.008Z,10.70
2019-03-22T11:07:56.057Z,9.20
2019-03-22T11:08:56.091Z,8.50
2019-03-22T11:09:56.136Z,9.20
2019-03-22T11:10:56.185Z,7.60
2019-03-22T11:11:56.224Z,8.30
2019-03-22T11:12:56.265Z,8.10
2019-03-22T11:13:56.315Z,7.50
2019-03-22T11:14:56.351Z,8.90
2019-03-22T11:15:56.395Z,7.80
2019-03-22T11:16:56.445Z,8.40
2019-03-22T11:17:56.483Z,9.60
2019-03-22T11:18:56.530Z,8.90
2019-03-22T11:19:57.549Z,9.70
2019-03-22T11:21:04.837Z,8.70
2019-03-22T11:21:56.653Z,8.90
2019-03-22T11:22:56.704Z,8.30
2019-03-22T11:23:56.747Z,7.80
2019-03-22T11:24:56.789Z,7.90
2019-03-22T11:26:04.041Z,8.10
2019-03-22T11:26:56.872Z,6.90
2019-03-22T11:27:56.915Z,8.20
2019-03-22T11:28:56.966Z,7.90
2019-03-22T11:29:57.002Z,7.40
2019-03-22T11:31:04.429Z,8.50
2019-03-22T11:31:57.096Z,8.60
2019-03-22T11:32:57.138Z,7.30
2019-03-22T11:33:57.187Z,7.70
2019-03-22T11:34:57.223Z,7.00
2019-03-22T11:35:57.266Z,7.90
2019-03-22T11:36:57.316Z,7.10
2019-03-22T11:37:57.363Z,9.90
2019-03-22T11:38:57.394Z,6.90
2019-03-22T11:39:57.440Z,8.40
2019-03-22T11:40:57.483Z,7.70
2019-03-22T11:41:57.526Z,6.80
2019-03-22T11:42:57.576Z,8.90
2019-03-22T11:43:57.613Z,6.80
2019-03-22T11:44:57.664Z,7.00
2019-03-22T11:45:57.702Z,7.30
2019-03-22T11:46:57.753Z,6.00
2019-03-22T11:47:57.792Z,6.90
2019-03-22T11:48:57.835Z,8.90
2019-03-22T11:49:57.880Z,6.40
2019-03-22T11:50:57.920Z,5.90
2019-03-22T11:51:57.965Z,6.50
2019-03-22T11:52:58.009Z,6.70
2019-03-22T11:53:58.054Z,5.90
2019-03-22T11:54:58.097Z,6.80
2019-03-22T11:55:58.142Z,6.00
2019-03-22T11:56:58.193Z,6.70
2019-03-22T11:57:58.227Z,5.80
2019-03-22T11:58:58.275Z,5.50
2019-03-22T11:59:58.318Z,6.10
2019-03-22T12:00:58.361Z,7.80
2019-03-22T12:01:58.406Z,5.60
2019-03-22T12:02:58.448Z,4.70
2019-03-22T12:03:58.494Z,6.00
2019-03-22T12:04:58.537Z,6.40
2019-03-22T12:05:58.581Z,6.10
2019-03-22T12:06:58.626Z,5.20
2019-03-22T12:07:58.673Z,6.70
2019-03-22T12:08:58.715Z,6.20
2019-03-22T12:09:58.761Z,6.00
2019-03-22T12:10:58.807Z,6.40
2019-03-22T12:11:58.848Z,4.20
2019-03-22T12:12:58.899Z,8.70
2019-03-22T12:13:58.947Z,6.90
2019-03-22T12:14:58.987Z,6.80
2019-03-22T12:15:59.025Z,8.90
2019-03-22T12:16:59.071Z,7.20
2019-03-22T12:17:59.114Z,6.00
2019-03-22T12:18:59.166Z,5.60
2019-03-22T12:19:59.210Z,6.50
2019-03-22T12:20:59.248Z,8.40
2019-03-22T12:21:59.290Z,7.30
2019-03-22T12:22:59.335Z,8.40
2019-03-22T12:23:59.380Z,9.50
2019-03-22T12:24:59.426Z,8.10
2019-03-22T12:25:59.470Z,10.20
2019-03-22T12:26:59.515Z,7.70
2019-03-22T12:27:59.561Z,7.90
2019-03-22T12:28:59.603Z,6.70
2019-03-22T12:29:59.648Z,5.80
2019-03-22T12:30:59.706Z,6.30
2019-03-22T12:31:59.738Z,6.00
2019-03-22T12:32:59.784Z,6.80
2019-03-22T12:33:59.834Z,6.80
2019-03-22T12:34:59.876Z,6.30
2019-03-22T12:35:59.921Z,7.00
2019-03-22T12:36:59.969Z,7.20
2019-03-22T12:38:00.006Z,5.10
2019-03-22T12:39:00.152Z,5.50
2019-03-22T12:40:00.121Z,6.30
2019-03-22T12:41:00.139Z,5.10
2019-03-22T12:42:00.185Z,6.70
2019-03-22T12:43:00.232Z,5.60
2019-03-22T12:44:00.281Z,7.60
2019-03-22T12:45:00.352Z,6.10
2019-03-22T12:46:00.373Z,5.00
2019-03-22T12:47:00.407Z,5.70
2019-03-22T12:48:00.453Z,5.80
2019-03-22T12:49:00.499Z,6.00
2019-03-22T12:50:00.542Z,6.10
2019-03-22T12:51:00.595Z,6.60
2019-03-22T12:52:00.632Z,6.30
2019-03-22T12:53:00.686Z,6.20
2019-03-22T12:54:00.721Z,5.80
2019-03-22T12:55:00.770Z,4.90
2019-03-22T12:56:00.812Z,5.50
2019-03-22T12:57:00.856Z,5.60